sensor_id;sensor_type;location;lat;lon;timestamp;P1;durP1;ratioP1;P2;durP2;ratioP2
80700;SDS011;71609;42.630;23.380;2024-03-29T00:00:34;2.13;;;0.82;;
80700;SDS011;71609;42.630;23.380;2024-03-29T00:03:00;1.92;;;0.80;;
80700;SDS011;71609;42.630;23.380;2024-03-29T00:05:26;2.58;;;0.70;;
80700;SDS011;71609;42.630;23.380;2024-03-29T00:07:51;2.53;;;0.77;;
80700;SDS011;71609;42.630;23.380;2024-03-29T00:10:17;3.42;;;0.80;;
80700;SDS011;71609;42.630;23.380;2024-03-29T00:12:43;2.55;;;0.73;;
80700;SDS011;71609;42.630;23.380;2024-03-29T00:15:09;3.45;;;0.90;;
80700;SDS011;71609;42.630;23.380;2024-03-29T00:17:35;1.83;;;0.60;;
80700;SDS011;71609;42.630;23.380;2024-03-29T00:20:00;3.00;;;0.90;;
80700;SDS011;71609;42.630;23.380;2024-03-29T00:22:27;2.85;;;0.70;;
80700;SDS011;71609;42.630;23.380;2024-03-29T00:24:53;3.20;;;0.88;;
80700;SDS011;71609;42.630;23.380;2024-03-29T00:27:19;1.35;;;0.60;;
80700;SDS011;71609;42.630;23.380;2024-03-29T00:29:44;2.50;;;0.75;;
80700;SDS011;71609;42.630;23.380;2024-03-29T00:32:12;2.58;;;0.75;;
80700;SDS011;71609;42.630;23.380;2024-03-29T00:34:38;3.38;;;0.60;;
80700;SDS011;71609;42.630;23.380;2024-03-29T00:37:04;1.63;;;0.75;;
80700;SDS011;71609;42.630;23.380;2024-03-29T00:39:29;1.30;;;0.65;;
80700;SDS011;71609;42.630;23.380;2024-03-29T00:41:55;2.67;;;0.73;;
80700;SDS011;71609;42.630;23.380;2024-03-29T00:44:21;2.10;;;0.52;;
80700;SDS011;71609;42.630;23.380;2024-03-29T00:46:46;2.25;;;0.73;;
80700;SDS011;71609;42.630;23.380;2024-03-29T00:49:12;3.72;;;0.70;;
80700;SDS011;71609;42.630;23.380;2024-03-29T00:51:38;1.55;;;0.65;;
80700;SDS011;71609;42.630;23.380;2024-03-29T00:54:04;2.55;;;0.77;;
80700;SDS011;71609;42.630;23.380;2024-03-29T00:56:30;2.35;;;0.68;;
80700;SDS011;71609;42.630;23.380;2024-03-29T00:58:56;1.55;;;0.60;;
80700;SDS011;71609;42.630;23.380;2024-03-29T01:01:22;3.53;;;0.88;;
80700;SDS011;71609;42.630;23.380;2024-03-29T01:03:47;4.78;;;0.85;;
80700;SDS011;71609;42.630;23.380;2024-03-29T01:06:13;1.98;;;0.70;;
80700;SDS011;71609;42.630;23.380;2024-03-29T01:08:39;1.50;;;0.60;;
80700;SDS011;71609;42.630;23.380;2024-03-29T01:11:04;2.90;;;0.77;;
80700;SDS011;71609;42.630;23.380;2024-03-29T01:13:30;1.88;;;0.60;;
80700;SDS011;71609;42.630;23.380;2024-03-29T01:15:56;2.50;;;0.65;;
80700;SDS011;71609;42.630;23.380;2024-03-29T01:18:21;2.00;;;0.70;;
80700;SDS011;71609;42.630;23.380;2024-03-29T01:20:47;3.70;;;1.02;;
80700;SDS011;71609;42.630;23.380;2024-03-29T01:23:13;2.17;;;0.70;;
80700;SDS011;71609;42.630;23.380;2024-03-29T01:25:39;2.67;;;0.57;;
80700;SDS011;71609;42.630;23.380;2024-03-29T01:28:04;6.18;;;0.82;;
80700;SDS011;71609;42.630;23.380;2024-03-29T01:30:30;4.72;;;0.77;;
80700;SDS011;71609;42.630;23.380;2024-03-29T01:32:56;2.47;;;0.80;;
80700;SDS011;71609;42.630;23.380;2024-03-29T01:35:22;3.67;;;0.70;;
80700;SDS011;71609;42.630;23.380;2024-03-29T01:37:47;2.42;;;0.73;;
80700;SDS011;71609;42.630;23.380;2024-03-29T01:40:13;2.53;;;0.82;;
80700;SDS011;71609;42.630;23.380;2024-03-29T01:42:39;1.60;;;0.70;;
80700;SDS011;71609;42.630;23.380;2024-03-29T01:45:05;3.95;;;0.82;;
80700;SDS011;71609;42.630;23.380;2024-03-29T01:47:33;2.33;;;0.63;;
80700;SDS011;71609;42.630;23.380;2024-03-29T01:49:59;2.78;;;0.80;;
80700;SDS011;71609;42.630;23.380;2024-03-29T01:52:24;2.30;;;0.63;;
80700;SDS011;71609;42.630;23.380;2024-03-29T01:54:52;1.27;;;0.65;;
80700;SDS011;71609;42.630;23.380;2024-03-29T01:57:17;1.90;;;0.63;;
80700;SDS011;71609;42.630;23.380;2024-03-29T01:59:43;2.03;;;0.60;;
80700;SDS011;71609;42.630;23.380;2024-03-29T02:02:11;2.92;;;0.70;;
80700;SDS011;71609;42.630;23.380;2024-03-29T02:04:36;2.72;;;0.82;;
80700;SDS011;71609;42.630;23.380;2024-03-29T02:07:03;4.00;;;0.75;;
80700;SDS011;71609;42.630;23.380;2024-03-29T02:09:29;2.13;;;0.60;;
80700;SDS011;71609;42.630;23.380;2024-03-29T02:11:55;3.30;;;0.93;;
80700;SDS011;71609;42.630;23.380;2024-03-29T02:14:21;2.38;;;0.60;;
80700;SDS011;71609;42.630;23.380;2024-03-29T02:16:46;1.20;;;0.40;;
80700;SDS011;71609;42.630;23.380;2024-03-29T02:19:12;1.77;;;0.68;;
80700;SDS011;71609;42.630;23.380;2024-03-29T02:21:40;2.03;;;0.70;;
80700;SDS011;71609;42.630;23.380;2024-03-29T02:24:10;1.52;;;0.52;;
80700;SDS011;71609;42.630;23.380;2024-03-29T02:26:38;2.75;;;0.68;;
80700;SDS011;71609;42.630;23.380;2024-03-29T02:29:07;2.50;;;0.70;;
80700;SDS011;71609;42.630;23.380;2024-03-29T02:31:37;1.30;;;0.60;;
80700;SDS011;71609;42.630;23.380;2024-03-29T02:34:03;2.90;;;0.70;;
80700;SDS011;71609;42.630;23.380;2024-03-29T02:36:29;2.05;;;0.60;;
80700;SDS011;71609;42.630;23.380;2024-03-29T02:38:55;3.58;;;0.95;;
80700;SDS011;71609;42.630;23.380;2024-03-29T02:41:22;2.03;;;0.80;;
80700;SDS011;71609;42.630;23.380;2024-03-29T02:43:48;1.52;;;0.57;;
80700;SDS011;71609;42.630;23.380;2024-03-29T02:46:13;2.60;;;0.80;;
80700;SDS011;71609;42.630;23.380;2024-03-29T02:48:39;3.88;;;0.70;;
80700;SDS011;71609;42.630;23.380;2024-03-29T02:51:06;1.13;;;0.50;;
80700;SDS011;71609;42.630;23.380;2024-03-29T02:53:32;2.83;;;0.75;;
80700;SDS011;71609;42.630;23.380;2024-03-29T02:55:57;2.25;;;0.60;;
80700;SDS011;71609;42.630;23.380;2024-03-29T02:58:23;1.40;;;0.50;;
80700;SDS011;71609;42.630;23.380;2024-03-29T03:00:49;2.83;;;0.70;;
80700;SDS011;71609;42.630;23.380;2024-03-29T03:03:15;2.17;;;0.60;;
80700;SDS011;71609;42.630;23.380;2024-03-29T03:05:42;2.08;;;0.70;;
80700;SDS011;71609;42.630;23.380;2024-03-29T03:08:08;2.03;;;0.70;;
80700;SDS011;71609;42.630;23.380;2024-03-29T03:10:52;2.70;;;0.60;;
80700;SDS011;71609;42.630;23.380;2024-03-29T03:13:29;1.60;;;0.50;;
80700;SDS011;71609;42.630;23.380;2024-03-29T03:15:55;1.38;;;0.47;;
80700;SDS011;71609;42.630;23.380;2024-03-29T03:18:21;3.03;;;0.90;;
80700;SDS011;71609;42.630;23.380;2024-03-29T03:20:53;2.10;;;0.50;;
80700;SDS011;71609;42.630;23.380;2024-03-29T03:23:20;3.28;;;0.63;;
80700;SDS011;71609;42.630;23.380;2024-03-29T03:25:53;2.17;;;0.50;;
80700;SDS011;71609;42.630;23.380;2024-03-29T03:28:19;4.32;;;0.77;;
80700;SDS011;71609;42.630;23.380;2024-03-29T03:30:45;3.15;;;0.68;;
80700;SDS011;71609;42.630;23.380;2024-03-29T03:33:11;1.67;;;0.50;;
80700;SDS011;71609;42.630;23.380;2024-03-29T03:35:37;3.45;;;0.82;;
80700;SDS011;71609;42.630;23.380;2024-03-29T03:38:03;1.85;;;0.50;;
80700;SDS011;71609;42.630;23.380;2024-03-29T03:40:28;2.38;;;0.60;;
80700;SDS011;71609;42.630;23.380;2024-03-29T03:42:54;1.63;;;0.60;;
80700;SDS011;71609;42.630;23.380;2024-03-29T03:45:20;1.20;;;0.50;;
80700;SDS011;71609;42.630;23.380;2024-03-29T03:47:46;2.58;;;0.70;;
80700;SDS011;71609;42.630;23.380;2024-03-29T03:50:11;2.42;;;0.60;;
80700;SDS011;71609;42.630;23.380;2024-03-29T03:52:37;2.17;;;0.70;;
80700;SDS011;71609;42.630;23.380;2024-03-29T03:55:03;1.73;;;0.50;;
80700;SDS011;71609;42.630;23.380;2024-03-29T03:57:29;2.60;;;0.57;;
80700;SDS011;71609;42.630;23.380;2024-03-29T03:59:54;2.92;;;0.52;;
80700;SDS011;71609;42.630;23.380;2024-03-29T04:02:20;2.45;;;0.60;;
80700;SDS011;71609;42.630;23.380;2024-03-29T04:04:49;2.92;;;0.77;;
80700;SDS011;71609;42.630;23.380;2024-03-29T04:07:15;1.63;;;0.50;;
80700;SDS011;71609;42.630;23.380;2024-03-29T04:09:40;1.92;;;0.68;;
80700;SDS011;71609;42.630;23.380;2024-03-29T04:12:06;3.05;;;1.00;;
80700;SDS011;71609;42.630;23.380;2024-03-29T04:14:32;3.33;;;0.77;;
80700;SDS011;71609;42.630;23.380;2024-03-29T04:16:58;2.83;;;0.80;;
80700;SDS011;71609;42.630;23.380;2024-03-29T04:19:23;1.58;;;0.70;;
80700;SDS011;71609;42.630;23.380;2024-03-29T04:21:49;2.10;;;0.70;;
80700;SDS011;71609;42.630;23.380;2024-03-29T04:24:15;1.05;;;0.43;;
80700;SDS011;71609;42.630;23.380;2024-03-29T04:26:40;1.80;;;0.65;;
80700;SDS011;71609;42.630;23.380;2024-03-29T04:29:08;1.13;;;0.47;;
80700;SDS011;71609;42.630;23.380;2024-03-29T04:31:33;1.38;;;0.50;;
80700;SDS011;71609;42.630;23.380;2024-03-29T04:33:59;2.83;;;0.70;;
80700;SDS011;71609;42.630;23.380;2024-03-29T04:36:25;1.50;;;0.50;;
80700;SDS011;71609;42.630;23.380;2024-03-29T04:38:50;2.03;;;0.43;;
80700;SDS011;71609;42.630;23.380;2024-03-29T04:41:16;1.70;;;0.50;;
80700;SDS011;71609;42.630;23.380;2024-03-29T04:43:42;2.22;;;0.63;;
80700;SDS011;71609;42.630;23.380;2024-03-29T04:46:10;1.70;;;0.63;;
80700;SDS011;71609;42.630;23.380;2024-03-29T04:48:41;1.85;;;0.50;;
80700;SDS011;71609;42.630;23.380;2024-03-29T04:51:10;1.33;;;0.55;;
80700;SDS011;71609;42.630;23.380;2024-03-29T04:53:37;2.53;;;0.90;;
80700;SDS011;71609;42.630;23.380;2024-03-29T04:56:03;1.88;;;0.52;;
80700;SDS011;71609;42.630;23.380;2024-03-29T04:58:30;1.73;;;0.70;;
80700;SDS011;71609;42.630;23.380;2024-03-29T05:00:56;2.63;;;0.70;;
80700;SDS011;71609;42.630;23.380;2024-03-29T05:03:23;1.55;;;0.47;;
80700;SDS011;71609;42.630;23.380;2024-03-29T05:05:52;1.67;;;0.50;;
80700;SDS011;71609;42.630;23.380;2024-03-29T05:08:18;1.77;;;0.70;;
80700;SDS011;71609;42.630;23.380;2024-03-29T05:10:45;2.20;;;0.60;;
80700;SDS011;71609;42.630;23.380;2024-03-29T05:13:11;9.88;;;1.15;;
80700;SDS011;71609;42.630;23.380;2024-03-29T05:15:37;5.50;;;0.90;;
80700;SDS011;71609;42.630;23.380;2024-03-29T05:18:03;4.30;;;0.73;;
80700;SDS011;71609;42.630;23.380;2024-03-29T05:20:32;12.38;;;1.48;;
80700;SDS011;71609;42.630;23.380;2024-03-29T05:22:58;3.57;;;1.03;;
80700;SDS011;71609;42.630;23.380;2024-03-29T05:25:25;6.18;;;1.30;;
80700;SDS011;71609;42.630;23.380;2024-03-29T05:27:51;8.15;;;1.35;;
80700;SDS011;71609;42.630;23.380;2024-03-29T05:30:17;6.38;;;1.35;;
80700;SDS011;71609;42.630;23.380;2024-03-29T05:32:43;10.70;;;1.83;;
80700;SDS011;71609;42.630;23.380;2024-03-29T05:35:09;10.40;;;1.50;;
80700;SDS011;71609;42.630;23.380;2024-03-29T05:37:36;7.80;;;1.52;;
80700;SDS011;71609;42.630;23.380;2024-03-29T05:40:02;11.10;;;1.25;;
80700;SDS011;71609;42.630;23.380;2024-03-29T05:42:31;6.70;;;1.50;;
80700;SDS011;71609;42.630;23.380;2024-03-29T05:45:02;4.32;;;1.40;;
80700;SDS011;71609;42.630;23.380;2024-03-29T05:47:46;10.52;;;1.63;;
80700;SDS011;71609;42.630;23.380;2024-03-29T05:50:12;7.00;;;1.27;;
80700;SDS011;71609;42.630;23.380;2024-03-29T05:52:38;8.18;;;1.50;;
80700;SDS011;71609;42.630;23.380;2024-03-29T05:55:04;7.18;;;1.63;;
80700;SDS011;71609;42.630;23.380;2024-03-29T05:57:32;7.53;;;1.60;;
80700;SDS011;71609;42.630;23.380;2024-03-29T05:59:59;7.43;;;1.40;;
80700;SDS011;71609;42.630;23.380;2024-03-29T06:02:25;10.75;;;1.50;;
80700;SDS011;71609;42.630;23.380;2024-03-29T06:04:51;13.98;;;1.75;;
80700;SDS011;71609;42.630;23.380;2024-03-29T06:07:16;11.70;;;1.52;;
80700;SDS011;71609;42.630;23.380;2024-03-29T06:09:42;15.27;;;1.80;;
80700;SDS011;71609;42.630;23.380;2024-03-29T06:12:08;8.02;;;1.20;;
80700;SDS011;71609;42.630;23.380;2024-03-29T06:14:36;8.45;;;1.58;;
80700;SDS011;71609;42.630;23.380;2024-03-29T06:17:20;10.25;;;1.50;;
80700;SDS011;71609;42.630;23.380;2024-03-29T06:19:52;11.37;;;1.80;;
80700;SDS011;71609;42.630;23.380;2024-03-29T06:22:23;8.52;;;1.40;;
80700;SDS011;71609;42.630;23.380;2024-03-29T06:24:50;5.80;;;1.70;;
80700;SDS011;71609;42.630;23.380;2024-03-29T06:27:19;8.52;;;1.20;;
80700;SDS011;71609;42.630;23.380;2024-03-29T06:29:47;8.27;;;1.40;;
80700;SDS011;71609;42.630;23.380;2024-03-29T06:32:16;8.57;;;1.30;;
80700;SDS011;71609;42.630;23.380;2024-03-29T06:34:43;10.43;;;1.25;;
80700;SDS011;71609;42.630;23.380;2024-03-29T06:37:10;9.75;;;1.42;;
80700;SDS011;71609;42.630;23.380;2024-03-29T06:39:36;6.40;;;1.33;;
80700;SDS011;71609;42.630;23.380;2024-03-29T06:42:02;14.98;;;1.48;;
80700;SDS011;71609;42.630;23.380;2024-03-29T06:44:28;8.38;;;1.10;;
80700;SDS011;71609;42.630;23.380;2024-03-29T06:46:54;4.70;;;1.20;;
80700;SDS011;71609;42.630;23.380;2024-03-29T06:49:19;4.80;;;1.40;;
80700;SDS011;71609;42.630;23.380;2024-03-29T06:51:45;7.95;;;1.55;;
80700;SDS011;71609;42.630;23.380;2024-03-29T06:54:11;11.88;;;1.40;;
80700;SDS011;71609;42.630;23.380;2024-03-29T06:56:37;7.57;;;1.20;;
80700;SDS011;71609;42.630;23.380;2024-03-29T06:59:03;14.68;;;1.40;;
80700;SDS011;71609;42.630;23.380;2024-03-29T07:01:29;8.60;;;1.23;;
80700;SDS011;71609;42.630;23.380;2024-03-29T07:03:55;10.07;;;1.17;;
80700;SDS011;71609;42.630;23.380;2024-03-29T07:06:21;12.90;;;1.17;;
80700;SDS011;71609;42.630;23.380;2024-03-29T07:08:47;8.30;;;1.50;;
80700;SDS011;71609;42.630;23.380;2024-03-29T07:11:13;6.57;;;1.30;;
80700;SDS011;71609;42.630;23.380;2024-03-29T07:13:38;7.00;;;1.35;;
80700;SDS011;71609;42.630;23.380;2024-03-29T07:16:04;10.57;;;1.70;;
80700;SDS011;71609;42.630;23.380;2024-03-29T07:18:32;9.93;;;1.40;;
80700;SDS011;71609;42.630;23.380;2024-03-29T07:20:58;10.10;;;1.40;;
80700;SDS011;71609;42.630;23.380;2024-03-29T07:23:24;8.43;;;1.23;;
80700;SDS011;71609;42.630;23.380;2024-03-29T07:26:02;13.73;;;1.60;;
80700;SDS011;71609;42.630;23.380;2024-03-29T07:28:29;11.63;;;1.17;;
80700;SDS011;71609;42.630;23.380;2024-03-29T07:30:55;13.98;;;1.52;;
80700;SDS011;71609;42.630;23.380;2024-03-29T07:33:22;6.72;;;1.23;;
80700;SDS011;71609;42.630;23.380;2024-03-29T07:40:47;8.05;;;1.20;;
80700;SDS011;71609;42.630;23.380;2024-03-29T07:43:13;25.15;;;1.90;;
80700;SDS011;71609;42.630;23.380;2024-03-29T07:45:42;20.42;;;2.30;;
80700;SDS011;71609;42.630;23.380;2024-03-29T07:48:15;21.17;;;1.48;;
80700;SDS011;71609;42.630;23.380;2024-03-29T07:50:42;11.18;;;1.27;;
80700;SDS011;71609;42.630;23.380;2024-03-29T07:53:09;15.15;;;1.88;;
80700;SDS011;71609;42.630;23.380;2024-03-29T07:55:35;16.45;;;2.00;;
80700;SDS011;71609;42.630;23.380;2024-03-29T07:58:02;16.15;;;1.95;;
80700;SDS011;71609;42.630;23.380;2024-03-29T08:00:30;22.83;;;2.22;;
80700;SDS011;71609;42.630;23.380;2024-03-29T08:03:00;14.90;;;1.40;;
80700;SDS011;71609;42.630;23.380;2024-03-29T08:05:26;12.27;;;1.48;;
80700;SDS011;71609;42.630;23.380;2024-03-29T08:07:52;11.52;;;1.23;;
80700;SDS011;71609;42.630;23.380;2024-03-29T08:10:18;15.80;;;1.67;;
80700;SDS011;71609;42.630;23.380;2024-03-29T08:12:44;8.90;;;0.95;;
80700;SDS011;71609;42.630;23.380;2024-03-29T08:15:10;18.20;;;1.50;;
80700;SDS011;71609;42.630;23.380;2024-03-29T08:17:36;6.28;;;1.23;;
80700;SDS011;71609;42.630;23.380;2024-03-29T08:20:02;19.27;;;1.45;;
80700;SDS011;71609;42.630;23.380;2024-03-29T08:22:29;8.27;;;1.13;;
80700;SDS011;71609;42.630;23.380;2024-03-29T08:24:57;21.35;;;1.92;;
80700;SDS011;71609;42.630;23.380;2024-03-29T08:27:23;11.73;;;1.33;;
80700;SDS011;71609;42.630;23.380;2024-03-29T08:29:48;10.32;;;1.38;;
80700;SDS011;71609;42.630;23.380;2024-03-29T08:32:15;8.65;;;1.02;;
80700;SDS011;71609;42.630;23.380;2024-03-29T08:34:41;12.88;;;1.17;;
80700;SDS011;71609;42.630;23.380;2024-03-29T08:37:07;5.50;;;1.08;;
80700;SDS011;71609;42.630;23.380;2024-03-29T08:39:32;2.72;;;0.82;;
80700;SDS011;71609;42.630;23.380;2024-03-29T08:41:59;4.20;;;1.10;;
80700;SDS011;71609;42.630;23.380;2024-03-29T08:44:30;7.82;;;0.68;;
80700;SDS011;71609;42.630;23.380;2024-03-29T08:46:56;6.50;;;0.88;;
80700;SDS011;71609;42.630;23.380;2024-03-29T08:49:23;13.35;;;1.30;;
80700;SDS011;71609;42.630;23.380;2024-03-29T08:51:49;5.15;;;0.80;;
80700;SDS011;71609;42.630;23.380;2024-03-29T08:54:15;3.25;;;0.73;;
80700;SDS011;71609;42.630;23.380;2024-03-29T08:56:41;7.03;;;0.88;;
80700;SDS011;71609;42.630;23.380;2024-03-29T08:59:06;4.13;;;0.88;;
80700;SDS011;71609;42.630;23.380;2024-03-29T09:01:36;5.13;;;0.73;;
80700;SDS011;71609;42.630;23.380;2024-03-29T09:04:03;4.45;;;1.00;;
80700;SDS011;71609;42.630;23.380;2024-03-29T09:06:32;11.45;;;1.20;;
80700;SDS011;71609;42.630;23.380;2024-03-29T09:08:58;6.50;;;0.90;;
80700;SDS011;71609;42.630;23.380;2024-03-29T09:11:24;15.70;;;1.38;;
80700;SDS011;71609;42.630;23.380;2024-03-29T09:13:50;6.57;;;1.02;;
80700;SDS011;71609;42.630;23.380;2024-03-29T09:16:15;6.18;;;1.00;;
80700;SDS011;71609;42.630;23.380;2024-03-29T09:18:41;7.28;;;1.08;;
80700;SDS011;71609;42.630;23.380;2024-03-29T09:21:07;5.40;;;1.20;;
80700;SDS011;71609;42.630;23.380;2024-03-29T09:23:34;8.07;;;1.20;;
80700;SDS011;71609;42.630;23.380;2024-03-29T09:26:00;5.72;;;1.13;;
80700;SDS011;71609;42.630;23.380;2024-03-29T09:28:29;5.70;;;1.05;;
80700;SDS011;71609;42.630;23.380;2024-03-29T09:30:59;5.22;;;0.90;;
80700;SDS011;71609;42.630;23.380;2024-03-29T09:35:51;12.32;;;1.20;;
80700;SDS011;71609;42.630;23.380;2024-03-29T09:38:19;9.13;;;1.00;;
80700;SDS011;71609;42.630;23.380;2024-03-29T09:40:45;12.05;;;1.08;;
80700;SDS011;71609;42.630;23.380;2024-03-29T09:43:11;3.97;;;0.75;;
80700;SDS011;71609;42.630;23.380;2024-03-29T09:45:39;14.17;;;1.23;;
80700;SDS011;71609;42.630;23.380;2024-03-29T09:48:07;12.00;;;1.13;;
80700;SDS011;71609;42.630;23.380;2024-03-29T09:50:37;11.52;;;1.75;;
80700;SDS011;71609;42.630;23.380;2024-03-29T09:53:06;14.57;;;1.08;;
80700;SDS011;71609;42.630;23.380;2024-03-29T09:55:33;15.68;;;1.80;;
80700;SDS011;71609;42.630;23.380;2024-03-29T09:58:00;8.15;;;1.10;;
80700;SDS011;71609;42.630;23.380;2024-03-29T10:00:28;5.75;;;1.30;;
80700;SDS011;71609;42.630;23.380;2024-03-29T10:02:55;27.13;;;1.60;;
80700;SDS011;71609;42.630;23.380;2024-03-29T10:05:24;4.57;;;1.08;;
80700;SDS011;71609;42.630;23.380;2024-03-29T10:07:54;21.02;;;1.80;;
80700;SDS011;71609;42.630;23.380;2024-03-29T10:10:21;10.75;;;1.10;;
80700;SDS011;71609;42.630;23.380;2024-03-29T10:12:48;9.20;;;1.50;;
80700;SDS011;71609;42.630;23.380;2024-03-29T10:15:14;15.35;;;1.65;;
80700;SDS011;71609;42.630;23.380;2024-03-29T10:17:46;11.95;;;1.80;;
80700;SDS011;71609;42.630;23.380;2024-03-29T10:20:17;39.88;;;3.05;;
80700;SDS011;71609;42.630;23.380;2024-03-29T10:22:43;24.70;;;2.28;;
80700;SDS011;71609;42.630;23.380;2024-03-29T10:25:10;22.90;;;1.88;;
80700;SDS011;71609;42.630;23.380;2024-03-29T10:27:38;11.98;;;1.33;;
80700;SDS011;71609;42.630;23.380;2024-03-29T10:30:06;17.40;;;1.70;;
80700;SDS011;71609;42.630;23.380;2024-03-29T10:32:34;16.80;;;1.88;;
80700;SDS011;71609;42.630;23.380;2024-03-29T10:35:02;26.50;;;2.10;;
80700;SDS011;71609;42.630;23.380;2024-03-29T10:37:28;29.55;;;3.25;;
80700;SDS011;71609;42.630;23.380;2024-03-29T10:39:57;17.38;;;2.38;;
80700;SDS011;71609;42.630;23.380;2024-03-29T10:42:23;46.78;;;2.33;;
80700;SDS011;71609;42.630;23.380;2024-03-29T10:44:50;12.65;;;1.70;;
80700;SDS011;71609;42.630;23.380;2024-03-29T10:47:18;11.68;;;1.58;;
80700;SDS011;71609;42.630;23.380;2024-03-29T10:49:49;15.45;;;1.38;;
80700;SDS011;71609;42.630;23.380;2024-03-29T10:52:18;12.57;;;1.67;;
80700;SDS011;71609;42.630;23.380;2024-03-29T10:54:46;8.02;;;1.63;;
80700;SDS011;71609;42.630;23.380;2024-03-29T10:57:22;12.35;;;1.35;;
80700;SDS011;71609;42.630;23.380;2024-03-29T11:02:24;9.98;;;1.85;;
80700;SDS011;71609;42.630;23.380;2024-03-29T11:05:12;13.75;;;1.30;;
80700;SDS011;71609;42.630;23.380;2024-03-29T11:07:42;12.47;;;1.33;;
80700;SDS011;71609;42.630;23.380;2024-03-29T11:10:15;15.23;;;1.88;;
80700;SDS011;71609;42.630;23.380;2024-03-29T11:12:56;15.70;;;1.40;;
80700;SDS011;71609;42.630;23.380;2024-03-29T11:15:29;8.25;;;1.13;;
80700;SDS011;71609;42.630;23.380;2024-03-29T11:17:56;5.90;;;1.30;;
80700;SDS011;71609;42.630;23.380;2024-03-29T11:20:23;7.20;;;1.13;;
80700;SDS011;71609;42.630;23.380;2024-03-29T11:22:59;6.65;;;0.95;;
80700;SDS011;71609;42.630;23.380;2024-03-29T11:25:38;4.38;;;1.15;;
80700;SDS011;71609;42.630;23.380;2024-03-29T11:28:14;6.43;;;1.10;;
80700;SDS011;71609;42.630;23.380;2024-03-29T11:30:46;9.05;;;1.73;;
80700;SDS011;71609;42.630;23.380;2024-03-29T11:35:55;5.75;;;1.15;;
80700;SDS011;71609;42.630;23.380;2024-03-29T11:38:22;10.88;;;1.10;;
80700;SDS011;71609;42.630;23.380;2024-03-29T11:41:02;12.68;;;1.98;;
80700;SDS011;71609;42.630;23.380;2024-03-29T11:43:32;7.00;;;1.75;;
80700;SDS011;71609;42.630;23.380;2024-03-29T11:45:59;7.22;;;1.40;;
80700;SDS011;71609;42.630;23.380;2024-03-29T11:48:30;8.95;;;1.35;;
80700;SDS011;71609;42.630;23.380;2024-03-29T11:50:57;5.20;;;1.30;;
80700;SDS011;71609;42.630;23.380;2024-03-29T11:53:23;7.13;;;1.15;;
80700;SDS011;71609;42.630;23.380;2024-03-29T11:55:49;8.40;;;1.33;;
80700;SDS011;71609;42.630;23.380;2024-03-29T11:58:24;8.02;;;1.60;;
80700;SDS011;71609;42.630;23.380;2024-03-29T12:00:51;10.00;;;1.50;;
80700;SDS011;71609;42.630;23.380;2024-03-29T12:03:19;12.95;;;1.70;;
80700;SDS011;71609;42.630;23.380;2024-03-29T12:05:47;11.60;;;1.70;;
80700;SDS011;71609;42.630;23.380;2024-03-29T12:08:15;8.15;;;1.38;;
80700;SDS011;71609;42.630;23.380;2024-03-29T12:10:41;9.68;;;1.35;;
80700;SDS011;71609;42.630;23.380;2024-03-29T12:13:08;8.73;;;1.42;;
80700;SDS011;71609;42.630;23.380;2024-03-29T12:15:34;5.72;;;1.00;;
80700;SDS011;71609;42.630;23.380;2024-03-29T12:18:01;8.02;;;2.08;;
80700;SDS011;71609;42.630;23.380;2024-03-29T12:20:29;4.82;;;1.08;;
80700;SDS011;71609;42.630;23.380;2024-03-29T12:22:55;6.55;;;1.25;;
80700;SDS011;71609;42.630;23.380;2024-03-29T12:25:40;8.75;;;1.40;;
80700;SDS011;71609;42.630;23.380;2024-03-29T12:28:05;11.32;;;1.88;;
80700;SDS011;71609;42.630;23.380;2024-03-29T12:30:32;14.50;;;1.88;;
80700;SDS011;71609;42.630;23.380;2024-03-29T12:35:31;5.90;;;1.23;;
80700;SDS011;71609;42.630;23.380;2024-03-29T12:37:58;15.38;;;1.30;;
80700;SDS011;71609;42.630;23.380;2024-03-29T12:40:26;6.65;;;1.38;;
80700;SDS011;71609;42.630;23.380;2024-03-29T12:45:21;5.70;;;1.13;;
80700;SDS011;71609;42.630;23.380;2024-03-29T12:47:47;15.57;;;1.42;;
80700;SDS011;71609;42.630;23.380;2024-03-29T12:50:19;10.77;;;1.92;;
80700;SDS011;71609;42.630;23.380;2024-03-29T12:52:56;14.48;;;1.42;;
80700;SDS011;71609;42.630;23.380;2024-03-29T12:55:24;6.53;;;1.10;;
80700;SDS011;71609;42.630;23.380;2024-03-29T12:57:55;11.10;;;1.40;;
80700;SDS011;71609;42.630;23.380;2024-03-29T13:00:21;6.47;;;1.63;;
80700;SDS011;71609;42.630;23.380;2024-03-29T13:02:47;5.72;;;1.10;;
80700;SDS011;71609;42.630;23.380;2024-03-29T13:05:13;5.55;;;1.00;;
80700;SDS011;71609;42.630;23.380;2024-03-29T13:07:38;7.40;;;0.85;;
80700;SDS011;71609;42.630;23.380;2024-03-29T13:10:05;8.80;;;1.10;;
80700;SDS011;71609;42.630;23.380;2024-03-29T13:12:36;11.20;;;1.40;;
80700;SDS011;71609;42.630;23.380;2024-03-29T13:15:14;7.25;;;1.23;;
80700;SDS011;71609;42.630;23.380;2024-03-29T13:17:41;6.50;;;1.35;;
80700;SDS011;71609;42.630;23.380;2024-03-29T13:20:07;12.27;;;1.25;;
80700;SDS011;71609;42.630;23.380;2024-03-29T13:22:35;11.25;;;1.45;;
80700;SDS011;71609;42.630;23.380;2024-03-29T13:25:02;12.25;;;1.30;;
80700;SDS011;71609;42.630;23.380;2024-03-29T13:27:30;19.48;;;1.55;;
80700;SDS011;71609;42.630;23.380;2024-03-29T13:29:56;10.75;;;1.42;;
80700;SDS011;71609;42.630;23.380;2024-03-29T13:32:21;10.88;;;1.30;;
80700;SDS011;71609;42.630;23.380;2024-03-29T13:34:47;29.65;;;2.30;;
80700;SDS011;71609;42.630;23.380;2024-03-29T13:37:13;25.55;;;2.13;;
80700;SDS011;71609;42.630;23.380;2024-03-29T13:39:39;16.58;;;2.33;;
80700;SDS011;71609;42.630;23.380;2024-03-29T13:42:05;14.63;;;1.98;;
80700;SDS011;71609;42.630;23.380;2024-03-29T13:44:30;18.00;;;1.75;;
80700;SDS011;71609;42.630;23.380;2024-03-29T13:46:59;33.53;;;2.33;;
80700;SDS011;71609;42.630;23.380;2024-03-29T13:49:29;25.52;;;1.60;;
80700;SDS011;71609;42.630;23.380;2024-03-29T13:51:57;8.98;;;1.42;;
80700;SDS011;71609;42.630;23.380;2024-03-29T13:54:23;25.25;;;1.75;;
80700;SDS011;71609;42.630;23.380;2024-03-29T13:56:49;24.05;;;2.00;;
80700;SDS011;71609;42.630;23.380;2024-03-29T13:59:15;18.15;;;1.63;;
80700;SDS011;71609;42.630;23.380;2024-03-29T14:01:40;19.05;;;1.52;;
80700;SDS011;71609;42.630;23.380;2024-03-29T14:04:06;25.00;;;1.90;;
80700;SDS011;71609;42.630;23.380;2024-03-29T14:06:32;24.25;;;2.78;;
80700;SDS011;71609;42.630;23.380;2024-03-29T14:08:58;20.05;;;2.10;;
80700;SDS011;71609;42.630;23.380;2024-03-29T14:11:23;24.83;;;2.03;;
80700;SDS011;71609;42.630;23.380;2024-03-29T14:13:49;16.98;;;1.45;;
80700;SDS011;71609;42.630;23.380;2024-03-29T14:16:21;18.60;;;1.90;;
80700;SDS011;71609;42.630;23.380;2024-03-29T14:18:47;18.30;;;1.77;;
80700;SDS011;71609;42.630;23.380;2024-03-29T14:21:13;19.13;;;2.38;;
80700;SDS011;71609;42.630;23.380;2024-03-29T14:23:38;15.02;;;1.88;;
80700;SDS011;71609;42.630;23.380;2024-03-29T14:26:05;17.02;;;2.22;;
80700;SDS011;71609;42.630;23.380;2024-03-29T14:28:31;22.17;;;1.70;;
80700;SDS011;71609;42.630;23.380;2024-03-29T14:30:57;22.58;;;1.88;;
80700;SDS011;71609;42.630;23.380;2024-03-29T14:33:22;16.50;;;1.98;;
80700;SDS011;71609;42.630;23.380;2024-03-29T14:35:48;14.98;;;1.75;;
80700;SDS011;71609;42.630;23.380;2024-03-29T14:38:14;30.42;;;2.10;;
80700;SDS011;71609;42.630;23.380;2024-03-29T14:40:41;13.77;;;1.67;;
80700;SDS011;71609;42.630;23.380;2024-03-29T14:43:07;15.55;;;1.85;;
80700;SDS011;71609;42.630;23.380;2024-03-29T14:45:33;16.60;;;1.70;;
80700;SDS011;71609;42.630;23.380;2024-03-29T14:47:59;27.70;;;2.03;;